sensor_id;sensor_type;location;lat;lon;timestamp;P1;durP1;ratioP1;P2;durP2;ratioP2
62024;SDS011;47978;49.118;12.146;2022-10-28T00:00:28;12.77;;;7.25;;
62024;SDS011;47978;49.118;12.146;2022-10-28T00:02:56;11.77;;;6.97;;
62024;SDS011;47978;49.118;12.146;2022-10-28T00:05:26;10.15;;;7.30;;
62024;SDS011;47978;49.118;12.146;2022-10-28T00:07:52;8.73;;;7.05;;
62024;SDS011;47978;49.118;12.146;2022-10-28T00:10:20;9.50;;;6.97;;
62024;SDS011;47978;49.118;12.146;2022-10-28T00:12:46;14.73;;;7.32;;
62024;SDS011;47978;49.118;12.146;2022-10-28T00:15:13;10.20;;;7.22;;
62024;SDS011;47978;49.118;12.146;2022-10-28T00:17:40;10.05;;;6.95;;
62024;SDS011;47978;49.118;12.146;2022-10-28T00:20:09;10.90;;;7.65;;
62024;SDS011;47978;49.118;12.146;2022-10-28T00:22:36;11.95;;;7.57;;
62024;SDS011;47978;49.118;12.146;2022-10-28T00:25:03;13.90;;;7.45;;
62024;SDS011;47978;49.118;12.146;2022-10-28T00:27:30;10.95;;;6.65;;
62024;SDS011;47978;49.118;12.146;2022-10-28T00:29:57;11.20;;;7.57;;
62024;SDS011;47978;49.118;12.146;2022-10-28T00:32:24;11.73;;;7.55;;
62024;SDS011;47978;49.118;12.146;2022-10-28T00:34:51;8.90;;;7.05;;
62024;SDS011;47978;49.118;12.146;2022-10-28T00:37:19;16.70;;;7.25;;
62024;SDS011;47978;49.118;12.146;2022-10-28T00:39:46;13.90;;;7.03;;
62024;SDS011;47978;49.118;12.146;2022-10-28T00:42:13;15.40;;;7.00;;
62024;SDS011;47978;49.118;12.146;2022-10-28T00:44:54;15.18;;;7.20;;
62024;SDS011;47978;49.118;12.146;2022-10-28T00:47:27;10.07;;;6.72;;
62024;SDS011;47978;49.118;12.146;2022-10-28T00:50:00;13.25;;;7.00;;
62024;SDS011;47978;49.118;12.146;2022-10-28T00:52:34;12.73;;;6.38;;
62024;SDS011;47978;49.118;12.146;2022-10-28T00:55:01;10.45;;;7.40;;
62024;SDS011;47978;49.118;12.146;2022-10-28T00:57:30;11.55;;;6.65;;
62024;SDS011;47978;49.118;12.146;2022-10-28T01:00:00;10.20;;;7.15;;
62024;SDS011;47978;49.118;12.146;2022-10-28T01:02:28;12.85;;;7.00;;
62024;SDS011;47978;49.118;12.146;2022-10-28T01:04:55;13.55;;;7.03;;
62024;SDS011;47978;49.118;12.146;2022-10-28T01:07:21;10.85;;;7.15;;
62024;SDS011;47978;49.118;12.146;2022-10-28T01:09:50;13.98;;;7.00;;
62024;SDS011;47978;49.118;12.146;2022-10-28T01:12:19;12.05;;;7.10;;
62024;SDS011;47978;49.118;12.146;2022-10-28T01:14:59;11.37;;;6.77;;
62024;SDS011;47978;49.118;12.146;2022-10-28T01:17:37;14.25;;;6.95;;
62024;SDS011;47978;49.118;12.146;2022-10-28T01:23:28;12.63;;;7.78;;
62024;SDS011;47978;49.118;12.146;2022-10-28T01:26:21;9.60;;;7.07;;
62024;SDS011;47978;49.118;12.146;2022-10-28T01:29:12;14.98;;;7.18;;
62024;SDS011;47978;49.118;12.146;2022-10-28T01:32:01;12.15;;;6.75;;
62024;SDS011;47978;49.118;12.146;2022-10-28T01:34:35;10.02;;;6.78;;
62024;SDS011;47978;49.118;12.146;2022-10-28T01:37:15;20.38;;;7.65;;
62024;SDS011;47978;49.118;12.146;2022-10-28T01:39:50;12.52;;;6.63;;
62024;SDS011;47978;49.118;12.146;2022-10-28T01:42:22;10.20;;;6.72;;
62024;SDS011;47978;49.118;12.146;2022-10-28T01:44:57;10.18;;;7.28;;
62024;SDS011;47978;49.118;12.146;2022-10-28T01:47:33;14.90;;;8.20;;
62024;SDS011;47978;49.118;12.146;2022-10-28T01:50:05;11.18;;;7.45;;
62024;SDS011;47978;49.118;12.146;2022-10-28T01:52:34;15.50;;;8.52;;
62024;SDS011;47978;49.118;12.146;2022-10-28T01:55:07;12.65;;;7.25;;
62024;SDS011;47978;49.118;12.146;2022-10-28T01:57:39;13.88;;;7.95;;
62024;SDS011;47978;49.118;12.146;2022-10-28T02:00:09;14.23;;;7.80;;
62024;SDS011;47978;49.118;12.146;2022-10-28T02:02:38;12.73;;;7.53;;
62024;SDS011;47978;49.118;12.146;2022-10-28T02:08:08;17.60;;;7.45;;
62024;SDS011;47978;49.118;12.146;2022-10-28T02:11:01;18.80;;;8.02;;
62024;SDS011;47978;49.118;12.146;2022-10-28T02:13:40;11.80;;;8.20;;
62024;SDS011;47978;49.118;12.146;2022-10-28T02:16:18;11.88;;;7.57;;
62024;SDS011;47978;49.118;12.146;2022-10-28T02:18:57;13.02;;;7.90;;
62024;SDS011;47978;49.118;12.146;2022-10-28T02:21:31;10.85;;;6.85;;
62024;SDS011;47978;49.118;12.146;2022-10-28T02:24:07;16.45;;;8.18;;
62024;SDS011;47978;49.118;12.146;2022-10-28T02:26:39;14.55;;;7.55;;
62024;SDS011;47978;49.118;12.146;2022-10-28T02:29:13;11.00;;;7.65;;
62024;SDS011;47978;49.118;12.146;2022-10-28T02:31:44;10.50;;;7.18;;
62024;SDS011;47978;49.118;12.146;2022-10-28T02:34:18;13.40;;;7.53;;
62024;SDS011;47978;49.118;12.146;2022-10-28T02:36:51;13.32;;;7.90;;
62024;SDS011;47978;49.118;12.146;2022-10-28T02:39:22;11.32;;;6.75;;
62024;SDS011;47978;49.118;12.146;2022-10-28T02:41:52;19.10;;;7.55;;
62024;SDS011;47978;49.118;12.146;2022-10-28T02:44:23;12.10;;;8.68;;
62024;SDS011;47978;49.118;12.146;2022-10-28T02:46:54;16.30;;;8.07;;
62024;SDS011;47978;49.118;12.146;2022-10-28T02:49:27;16.48;;;7.95;;
62024;SDS011;47978;49.118;12.146;2022-10-28T02:51:58;11.32;;;8.35;;
62024;SDS011;47978;49.118;12.146;2022-10-28T02:54:28;16.95;;;8.63;;
62024;SDS011;47978;49.118;12.146;2022-10-28T02:57:02;19.80;;;9.27;;
62024;SDS011;47978;49.118;12.146;2022-10-28T02:59:33;17.95;;;8.75;;
62024;SDS011;47978;49.118;12.146;2022-10-28T03:01:59;26.48;;;9.63;;
62024;SDS011;47978;49.118;12.146;2022-10-28T03:04:28;13.68;;;8.80;;
62024;SDS011;47978;49.118;12.146;2022-10-28T03:06:55;17.17;;;9.68;;
62024;SDS011;47978;49.118;12.146;2022-10-28T03:09:22;12.35;;;9.10;;
62024;SDS011;47978;49.118;12.146;2022-10-28T03:11:48;13.23;;;9.20;;
62024;SDS011;47978;49.118;12.146;2022-10-28T03:14:15;14.82;;;9.27;;
62024;SDS011;47978;49.118;12.146;2022-10-28T03:16:42;18.33;;;9.63;;
62024;SDS011;47978;49.118;12.146;2022-10-28T03:19:09;17.35;;;8.95;;
62024;SDS011;47978;49.118;12.146;2022-10-28T03:21:37;15.93;;;9.27;;
62024;SDS011;47978;49.118;12.146;2022-10-28T03:24:04;18.33;;;11.02;;
62024;SDS011;47978;49.118;12.146;2022-10-28T03:26:31;24.02;;;13.88;;
62024;SDS011;47978;49.118;12.146;2022-10-28T03:28:57;20.85;;;14.15;;
62024;SDS011;47978;49.118;12.146;2022-10-28T03:31:24;22.17;;;13.55;;
62024;SDS011;47978;49.118;12.146;2022-10-28T03:33:51;18.48;;;12.43;;
62024;SDS011;47978;49.118;12.146;2022-10-28T03:36:17;26.35;;;12.02;;
62024;SDS011;47978;49.118;12.146;2022-10-28T03:38:46;18.40;;;11.63;;
62024;SDS011;47978;49.118;12.146;2022-10-28T03:41:13;16.00;;;10.48;;
62024;SDS011;47978;49.118;12.146;2022-10-28T03:43:39;20.50;;;11.15;;
62024;SDS011;47978;49.118;12.146;2022-10-28T03:46:06;16.75;;;10.48;;
62024;SDS011;47978;49.118;12.146;2022-10-28T03:48:34;22.77;;;10.20;;
62024;SDS011;47978;49.118;12.146;2022-10-28T03:51:00;16.88;;;11.52;;
62024;SDS011;47978;49.118;12.146;2022-10-28T03:53:27;16.25;;;10.85;;
62024;SDS011;47978;49.118;12.146;2022-10-28T03:55:58;14.55;;;10.25;;
62024;SDS011;47978;49.118;12.146;2022-10-28T03:58:26;17.33;;;11.60;;
62024;SDS011;47978;49.118;12.146;2022-10-28T04:00:53;16.63;;;11.57;;
62024;SDS011;47978;49.118;12.146;2022-10-28T04:03:21;19.27;;;11.65;;
62024;SDS011;47978;49.118;12.146;2022-10-28T04:05:50;17.85;;;11.13;;
62024;SDS011;47978;49.118;12.146;2022-10-28T04:08:18;14.55;;;10.10;;
62024;SDS011;47978;49.118;12.146;2022-10-28T04:10:45;16.83;;;10.32;;
62024;SDS011;47978;49.118;12.146;2022-10-28T04:13:14;17.33;;;10.68;;
62024;SDS011;47978;49.118;12.146;2022-10-28T04:15:42;15.00;;;10.80;;
62024;SDS011;47978;49.118;12.146;2022-10-28T04:18:09;14.73;;;9.27;;
62024;SDS011;47978;49.118;12.146;2022-10-28T04:20:37;20.58;;;9.95;;
62024;SDS011;47978;49.118;12.146;2022-10-28T04:23:03;17.27;;;9.90;;
62024;SDS011;47978;49.118;12.146;2022-10-28T04:25:30;16.23;;;10.43;;
62024;SDS011;47978;49.118;12.146;2022-10-28T04:27:57;17.00;;;9.77;;
62024;SDS011;47978;49.118;12.146;2022-10-28T04:30:25;17.23;;;11.60;;
62024;SDS011;47978;49.118;12.146;2022-10-28T04:32:52;21.13;;;11.75;;
62024;SDS011;47978;49.118;12.146;2022-10-28T04:35:19;22.02;;;12.40;;
62024;SDS011;47978;49.118;12.146;2022-10-28T04:37:45;26.55;;;12.85;;
62024;SDS011;47978;49.118;12.146;2022-10-28T04:40:12;25.73;;;13.15;;
62024;SDS011;47978;49.118;12.146;2022-10-28T04:42:39;20.52;;;12.85;;
62024;SDS011;47978;49.118;12.146;2022-10-28T04:45:06;26.63;;;13.95;;
62024;SDS011;47978;49.118;12.146;2022-10-28T04:47:35;23.92;;;14.50;;
62024;SDS011;47978;49.118;12.146;2022-10-28T04:50:02;26.50;;;14.77;;
62024;SDS011;47978;49.118;12.146;2022-10-28T04:52:29;25.00;;;16.58;;
62024;SDS011;47978;49.118;12.146;2022-10-28T04:54:56;26.45;;;16.30;;
62024;SDS011;47978;49.118;12.146;2022-10-28T04:57:23;28.73;;;15.13;;
62024;SDS011;47978;49.118;12.146;2022-10-28T04:59:50;24.45;;;14.88;;
62024;SDS011;47978;49.118;12.146;2022-10-28T05:02:17;29.27;;;15.32;;
62024;SDS011;47978;49.118;12.146;2022-10-28T05:04:45;21.70;;;14.57;;
62024;SDS011;47978;49.118;12.146;2022-10-28T05:07:12;30.15;;;16.17;;
62024;SDS011;47978;49.118;12.146;2022-10-28T05:09:38;25.00;;;16.88;;
62024;SDS011;47978;49.118;12.146;2022-10-28T05:12:05;28.25;;;16.63;;
62024;SDS011;47978;49.118;12.146;2022-10-28T05:14:32;30.13;;;18.70;;
62024;SDS011;47978;49.118;12.146;2022-10-28T05:16:59;32.50;;;17.35;;
62024;SDS011;47978;49.118;12.146;2022-10-28T05:19:26;24.35;;;15.57;;
62024;SDS011;47978;49.118;12.146;2022-10-28T05:21:54;25.40;;;15.82;;
62024;SDS011;47978;49.118;12.146;2022-10-28T05:24:21;31.05;;;15.75;;
62024;SDS011;47978;49.118;12.146;2022-10-28T05:26:47;23.63;;;14.82;;
62024;SDS011;47978;49.118;12.146;2022-10-28T05:29:14;22.65;;;14.82;;
62024;SDS011;47978;49.118;12.146;2022-10-28T05:31:41;27.63;;;15.18;;
62024;SDS011;47978;49.118;12.146;2022-10-28T05:34:08;25.35;;;14.32;;
62024;SDS011;47978;49.118;12.146;2022-10-28T05:36:34;27.08;;;14.75;;
62024;SDS011;47978;49.118;12.146;2022-10-28T05:39:02;26.77;;;14.98;;
62024;SDS011;47978;49.118;12.146;2022-10-28T05:41:30;19.45;;;13.38;;
62024;SDS011;47978;49.118;12.146;2022-10-28T05:44:01;27.92;;;16.02;;
62024;SDS011;47978;49.118;12.146;2022-10-28T05:46:28;29.48;;;15.77;;
62024;SDS011;47978;49.118;12.146;2022-10-28T05:48:55;24.25;;;14.85;;
62024;SDS011;47978;49.118;12.146;2022-10-28T05:51:22;27.40;;;15.93;;
62024;SDS011;47978;49.118;12.146;2022-10-28T05:53:49;25.58;;;16.08;;
62024;SDS011;47978;49.118;12.146;2022-10-28T05:56:17;25.40;;;15.95;;
62024;SDS011;47978;49.118;12.146;2022-10-28T05:58:44;22.42;;;14.65;;
62024;SDS011;47978;49.118;12.146;2022-10-28T06:01:11;27.17;;;15.45;;
62024;SDS011;47978;49.118;12.146;2022-10-28T06:03:38;24.45;;;15.18;;
62024;SDS011;47978;49.118;12.146;2022-10-28T06:06:05;23.67;;;14.63;;
62024;SDS011;47978;49.118;12.146;2022-10-28T06:08:32;25.10;;;15.35;;
62024;SDS011;47978;49.118;12.146;2022-10-28T06:10:58;25.95;;;14.75;;
62024;SDS011;47978;49.118;12.146;2022-10-28T06:13:27;26.40;;;15.27;;
62024;SDS011;47978;49.118;12.146;2022-10-28T06:15:54;21.80;;;15.02;;
62024;SDS011;47978;49.118;12.146;2022-10-28T06:18:22;22.25;;;14.23;;
62024;SDS011;47978;49.118;12.146;2022-10-28T06:20:50;24.63;;;14.73;;
62024;SDS011;47978;49.118;12.146;2022-10-28T06:23:18;22.50;;;15.27;;
62024;SDS011;47978;49.118;12.146;2022-10-28T06:25:44;27.63;;;15.48;;
62024;SDS011;47978;49.118;12.146;2022-10-28T06:28:11;29.52;;;17.10;;
62024;SDS011;47978;49.118;12.146;2022-10-28T06:30:39;34.42;;;18.58;;
62024;SDS011;47978;49.118;12.146;2022-10-28T06:33:06;29.85;;;16.80;;
62024;SDS011;47978;49.118;12.146;2022-10-28T06:35:32;29.10;;;16.10;;
62024;SDS011;47978;49.118;12.146;2022-10-28T06:38:00;28.27;;;16.40;;
62024;SDS011;47978;49.118;12.146;2022-10-28T06:40:26;23.58;;;15.02;;
62024;SDS011;47978;49.118;12.146;2022-10-28T06:42:56;23.77;;;14.85;;
62024;SDS011;47978;49.118;12.146;2022-10-28T06:45:24;23.20;;;14.85;;
62024;SDS011;47978;49.118;12.146;2022-10-28T06:47:55;26.45;;;13.95;;
62024;SDS011;47978;49.118;12.146;2022-10-28T06:50:22;24.80;;;15.95;;
62024;SDS011;47978;49.118;12.146;2022-10-28T06:52:49;25.75;;;14.73;;
62024;SDS011;47978;49.118;12.146;2022-10-28T06:55:16;27.90;;;15.02;;
62024;SDS011;47978;49.118;12.146;2022-10-28T06:57:43;25.27;;;14.90;;
62024;SDS011;47978;49.118;12.146;2022-10-28T07:00:10;24.88;;;14.57;;
62024;SDS011;47978;49.118;12.146;2022-10-28T07:02:37;27.80;;;18.48;;
62024;SDS011;47978;49.118;12.146;2022-10-28T07:05:11;23.60;;;16.40;;
62024;SDS011;47978;49.118;12.146;2022-10-28T07:07:38;27.58;;;17.48;;
62024;SDS011;47978;49.118;12.146;2022-10-28T07:10:05;30.27;;;18.90;;
62024;SDS011;47978;49.118;12.146;2022-10-28T07:12:32;35.53;;;19.33;;
62024;SDS011;47978;49.118;12.146;2022-10-28T07:14:58;31.55;;;20.10;;
62024;SDS011;47978;49.118;12.146;2022-10-28T07:17:25;36.17;;;22.27;;
62024;SDS011;47978;49.118;12.146;2022-10-28T07:19:52;35.90;;;21.67;;
62024;SDS011;47978;49.118;12.146;2022-10-28T07:22:20;36.03;;;23.40;;
62024;SDS011;47978;49.118;12.146;2022-10-28T07:27:17;38.10;;;21.58;;
62024;SDS011;47978;49.118;12.146;2022-10-28T07:29:44;45.08;;;25.25;;
62024;SDS011;47978;49.118;12.146;2022-10-28T07:32:10;42.72;;;24.08;;
62024;SDS011;47978;49.118;12.146;2022-10-28T07:34:37;45.85;;;24.35;;
62024;SDS011;47978;49.118;12.146;2022-10-28T07:37:04;47.95;;;26.55;;
62024;SDS011;47978;49.118;12.146;2022-10-28T07:39:32;41.75;;;24.35;;
62024;SDS011;47978;49.118;12.146;2022-10-28T07:41:59;47.85;;;27.92;;
62024;SDS011;47978;49.118;12.146;2022-10-28T07:44:25;44.35;;;27.42;;
62024;SDS011;47978;49.118;12.146;2022-10-28T07:46:52;44.28;;;24.65;;
62024;SDS011;47978;49.118;12.146;2022-10-28T07:49:23;46.70;;;26.08;;
62024;SDS011;47978;49.118;12.146;2022-10-28T07:51:50;40.47;;;24.33;;
62024;SDS011;47978;49.118;12.146;2022-10-28T07:54:17;36.33;;;21.50;;
62024;SDS011;47978;49.118;12.146;2022-10-28T07:56:45;34.08;;;21.95;;
62024;SDS011;47978;49.118;12.146;2022-10-28T07:59:12;36.80;;;21.15;;
62024;SDS011;47978;49.118;12.146;2022-10-28T08:01:39;25.50;;;17.80;;
62024;SDS011;47978;49.118;12.146;2022-10-28T08:04:06;30.75;;;18.75;;
62024;SDS011;47978;49.118;12.146;2022-10-28T08:06:33;36.45;;;22.73;;
62024;SDS011;47978;49.118;12.146;2022-10-28T08:09:00;48.58;;;26.40;;
62024;SDS011;47978;49.118;12.146;2022-10-28T08:11:27;35.70;;;23.80;;
62024;SDS011;47978;49.118;12.146;2022-10-28T08:13:55;38.08;;;24.15;;
62024;SDS011;47978;49.118;12.146;2022-10-28T08:16:22;38.88;;;25.30;;
62024;SDS011;47978;49.118;12.146;2022-10-28T08:18:49;37.33;;;23.85;;
62024;SDS011;47978;49.118;12.146;2022-10-28T08:21:16;36.53;;;23.83;;
62024;SDS011;47978;49.118;12.146;2022-10-28T08:23:43;40.00;;;24.58;;
62024;SDS011;47978;49.118;12.146;2022-10-28T08:26:09;40.30;;;23.55;;
62024;SDS011;47978;49.118;12.146;2022-10-28T08:28:36;42.20;;;27.23;;
62024;SDS011;47978;49.118;12.146;2022-10-28T08:31:04;39.75;;;25.73;;
62024;SDS011;47978;49.118;12.146;2022-10-28T08:33:35;39.47;;;25.17;;
62024;SDS011;47978;49.118;12.146;2022-10-28T08:36:02;47.55;;;28.33;;
62024;SDS011;47978;49.118;12.146;2022-10-28T08:38:29;36.60;;;24.15;;
62024;SDS011;47978;49.118;12.146;2022-10-28T08:40:58;41.08;;;26.08;;
62024;SDS011;47978;49.118;12.146;2022-10-28T08:43:35;34.28;;;23.35;;
62024;SDS011;47978;49.118;12.146;2022-10-28T08:46:25;36.70;;;20.50;;
62024;SDS011;47978;49.118;12.146;2022-10-28T08:49:07;30.30;;;15.93;;
62024;SDS011;47978;49.118;12.146;2022-10-28T08:51:39;24.83;;;14.65;;
62024;SDS011;47978;49.118;12.146;2022-10-28T08:54:12;23.90;;;12.15;;
62024;SDS011;47978;49.118;12.146;2022-10-28T08:56:44;16.02;;;10.23;;
62024;SDS011;47978;49.118;12.146;2022-10-28T08:59:13;18.90;;;10.25;;
62024;SDS011;47978;49.118;12.146;2022-10-28T09:01:46;13.23;;;9.50;;
62024;SDS011;47978;49.118;12.146;2022-10-28T09:04:18;16.15;;;11.25;;
62024;SDS011;47978;49.118;12.146;2022-10-28T09:06:53;18.25;;;10.15;;
62024;SDS011;47978;49.118;12.146;2022-10-28T09:09:21;13.88;;;9.35;;
62024;SDS011;47978;49.118;12.146;2022-10-28T09:11:51;18.20;;;9.85;;
62024;SDS011;47978;49.118;12.146;2022-10-28T09:14:33;14.88;;;9.35;;
62024;SDS011;47978;49.118;12.146;2022-10-28T09:17:13;13.43;;;8.57;;
62024;SDS011;47978;49.118;12.146;2022-10-28T09:19:44;15.18;;;8.45;;
62024;SDS011;47978;49.118;12.146;2022-10-28T09:22:20;13.85;;;7.60;;
62024;SDS011;47978;49.118;12.146;2022-10-28T09:24:51;13.35;;;7.03;;
62024;SDS011;47978;49.118;12.146;2022-10-28T09:30:20;10.98;;;6.43;;
62024;SDS011;47978;49.118;12.146;2022-10-28T09:32:57;14.95;;;6.32;;
62024;SDS011;47978;49.118;12.146;2022-10-28T09:35:35;13.38;;;6.15;;
62024;SDS011;47978;49.118;12.146;2022-10-28T09:38:06;10.05;;;5.13;;
62024;SDS011;47978;49.118;12.146;2022-10-28T09:40:40;13.88;;;5.63;;
62024;SDS011;47978;49.118;12.146;2022-10-28T09:43:14;9.15;;;5.75;;
62024;SDS011;47978;49.118;12.146;2022-10-28T09:45:47;13.85;;;5.80;;
62024;SDS011;47978;49.118;12.146;2022-10-28T09:48:19;8.50;;;5.40;;
62024;SDS011;47978;49.118;12.146;2022-10-28T09:50:49;8.27;;;5.00;;
62024;SDS011;47978;49.118;12.146;2022-10-28T09:53:30;11.75;;;5.43;;
62024;SDS011;47978;49.118;12.146;2022-10-28T09:56:06;7.75;;;4.75;;
62024;SDS011;47978;49.118;12.146;2022-10-28T09:58:39;8.02;;;5.15;;
62024;SDS011;47978;49.118;12.146;2022-10-28T10:01:10;8.13;;;4.38;;
62024;SDS011;47978;49.118;12.146;2022-10-28T10:03:38;12.32;;;4.32;;
62024;SDS011;47978;49.118;12.146;2022-10-28T10:06:07;13.05;;;4.50;;
62024;SDS011;47978;49.118;12.146;2022-10-28T10:08:38;8.18;;;4.60;;
62024;SDS011;47978;49.118;12.146;2022-10-28T10:11:09;6.40;;;4.30;;
62024;SDS011;47978;49.118;12.146;2022-10-28T10:13:40;8.45;;;4.10;;
62024;SDS011;47978;49.118;12.146;2022-10-28T10:16:12;7.70;;;3.83;;
62024;SDS011;47978;49.118;12.146;2022-10-28T10:18:46;6.07;;;4.25;;
62024;SDS011;47978;49.118;12.146;2022-10-28T10:21:19;6.18;;;4.00;;
62024;SDS011;47978;49.118;12.146;2022-10-28T10:24:20;10.32;;;4.10;;
62024;SDS011;47978;49.118;12.146;2022-10-28T10:26:55;7.10;;;3.50;;
62024;SDS011;47978;49.118;12.146;2022-10-28T10:29:23;11.68;;;4.32;;
62024;SDS011;47978;49.118;12.146;2022-10-28T10:32:02;8.45;;;4.50;;
62024;SDS011;47978;49.118;12.146;2022-10-28T10:34:33;6.15;;;4.00;;
62024;SDS011;47978;49.118;12.146;2022-10-28T10:37:00;9.40;;;4.00;;
62024;SDS011;47978;49.118;12.146;2022-10-28T10:39:34;7.03;;;3.35;;
62024;SDS011;47978;49.118;12.146;2022-10-28T10:42:02;8.55;;;3.67;;
62024;SDS011;47978;49.118;12.146;2022-10-28T10:44:40;8.23;;;3.88;;
62024;SDS011;47978;49.118;12.146;2022-10-28T10:49:57;4.55;;;3.38;;
62024;SDS011;47978;49.118;12.146;2022-10-28T10:52:46;6.63;;;3.70;;
62024;SDS011;47978;49.118;12.146;2022-10-28T10:55:18;9.25;;;3.60;;
62024;SDS011;47978;49.118;12.146;2022-10-28T10:57:48;7.18;;;4.53;;
62024;SDS011;47978;49.118;12.146;2022-10-28T11:00:15;7.45;;;3.40;;
62024;SDS011;47978;49.118;12.146;2022-10-28T11:02:44;7.45;;;3.92;;
62024;SDS011;47978;49.118;12.146;2022-10-28T11:05:20;9.25;;;3.50;;
62024;SDS011;47978;49.118;12.146;2022-10-28T11:07:54;11.60;;;3.97;;
62024;SDS011;47978;49.118;12.146;2022-10-28T11:10:23;8.40;;;3.42;;
62024;SDS011;47978;49.118;12.146;2022-10-28T11:12:52;11.20;;;3.75;;
62024;SDS011;47978;49.118;12.146;2022-10-28T11:15:22;10.57;;;4.07;;
62024;SDS011;47978;49.118;12.146;2022-10-28T11:17:58;10.50;;;3.80;;
62024;SDS011;47978;49.118;12.146;2022-10-28T11:20:30;6.85;;;3.20;;
62024;SDS011;47978;49.118;12.146;2022-10-28T11:23:12;8.95;;;3.50;;
62024;SDS011;47978;49.118;12.146;2022-10-28T11:25:51;6.30;;;3.50;;
62024;SDS011;47978;49.118;12.146;2022-10-28T11:28:24;9.93;;;3.28;;
62024;SDS011;47978;49.118;12.146;2022-10-28T11:31:02;7.25;;;2.97;;
62024;SDS011;47978;49.118;12.146;2022-10-28T11:33:41;6.70;;;2.90;;
62024;SDS011;47978;49.118;12.146;2022-10-28T11:36:18;6.47;;;3.30;;
62024;SDS011;47978;49.118;12.146;2022-10-28T11:38:57;4.22;;;2.95;;
62024;SDS011;47978;49.118;12.146;2022-10-28T11:41:36;7.88;;;3.00;;
62024;SDS011;47978;49.118;12.146;2022-10-28T11:44:16;8.15;;;3.45;;
62024;SDS011;47978;49.118;12.146;2022-10-28T11:46:58;11.02;;;3.28;;
62024;SDS011;47978;49.118;12.146;2022-10-28T11:49:37;6.63;;;2.90;;
62024;SDS011;47978;49.118;12.146;2022-10-28T11:52:28;5.05;;;2.70;;
62024;SDS011;47978;49.118;12.146;2022-10-28T11:55:13;6.80;;;3.90;;
62024;SDS011;47978;49.118;12.146;2022-10-28T11:57:49;8.27;;;3.05;;
62024;SDS011;47978;49.118;12.146;2022-10-28T12:00:40;5.53;;;3.40;;
62024;SDS011;47978;49.118;12.146;2022-10-28T12:03:18;5.53;;;2.95;;
62024;SDS011;47978;49.118;12.146;2022-10-28T12:06:11;6.07;;;3.03;;
62024;SDS011;47978;49.118;12.146;2022-10-28T12:08:49;10.57;;;3.30;;
62024;SDS011;47978;49.118;12.146;2022-10-28T12:11:31;5.85;;;2.53;;
62024;SDS011;47978;49.118;12.146;2022-10-28T12:14:12;7.47;;;2.72;;
62024;SDS011;47978;49.118;12.146;2022-10-28T12:16:46;5.18;;;2.80;;
62024;SDS011;47978;49.118;12.146;2022-10-28T12:19:18;6.68;;;2.55;;
62024;SDS011;47978;49.118;12.146;2022-10-28T12:21:51;6.05;;;2.90;;
62024;SDS011;47978;49.118;12.146;2022-10-28T12:24:26;5.30;;;2.38;;
62024;SDS011;47978;49.118;12.146;2022-10-28T12:26:57;6.57;;;2.88;;
62024;SDS011;47978;49.118;12.146;2022-10-28T12:29:28;4.88;;;2.55;;
62024;SDS011;47978;49.118;12.146;2022-10-28T12:31:59;5.70;;;2.85;;
62024;SDS011;47978;49.118;12.146;2022-10-28T12:34:31;7.43;;;2.88;;
62024;SDS011;47978;49.118;12.146;2022-10-28T12:37:06;6.15;;;2.75;;
62024;SDS011;47978;49.118;12.146;2022-10-28T12:39:40;5.10;;;2.65;;
62024;SDS011;47978;49.118;12.146;2022-10-28T12:42:11;4.78;;;2.78;;
62024;SDS011;47978;49.118;12.146;2022-10-28T12:44:43;5.88;;;2.65;;
62024;SDS011;47978;49.118;12.146;2022-10-28T12:47:18;6.63;;;2.60;;
62024;SDS011;47978;49.118;12.146;2022-10-28T12:49:54;6.18;;;2.45;;
62024;SDS011;47978;49.118;12.146;2022-10-28T12:52:34;5.65;;;2.42;;
62024;SDS011;47978;49.118;12.146;2022-10-28T12:55:09;5.85;;;2.47;;
62024;SDS011;47978;49.118;12.146;2022-10-28T12:57:45;5.63;;;2.53;;
62024;SDS011;47978;49.118;12.146;2022-10-28T13:00:15;3.65;;;2.15;;
62024;SDS011;47978;49.118;12.146;2022-10-28T13:02:48;6.03;;;3.35;;
62024;SDS011;47978;49.118;12.146;2022-10-28T13:05:20;7.22;;;2.38;;
62024;SDS011;47978;49.118;12.146;2022-10-28T13:07:53;3.60;;;2.37;;
62024;SDS011;47978;49.118;12.146;2022-10-28T13:10:37;7.22;;;2.53;;
62024;SDS011;47978;49.118;12.146;2022-10-28T13:13:17;4.75;;;2.38;;
62024;SDS011;47978;49.118;12.146;2022-10-28T13:24:54;5.88;;;2.40;;
62024;SDS011;47978;49.118;12.146;2022-10-28T13:27:27;6.10;;;2.72;;
62024;SDS011;47978;49.118;12.146;2022-10-28T13:29:55;6.57;;;2.20;;
62024;SDS011;47978;49.118;12.146;2022-10-28T13:32:29;3.97;;;2.20;;
62024;SDS011;47978;49.118;12.146;2022-10-28T13:35:09;5.68;;;2.30;;
62024;SDS011;47978;49.118;12.146;2022-10-28T13:37:38;9.45;;;2.70;;
62024;SDS011;47978;49.118;12.146;2022-10-28T13:40:10;7.55;;;2.60;;
62024;SDS011;47978;49.118;12.146;2022-10-28T13:42:48;5.55;;;2.60;;
62024;SDS011;47978;49.118;12.146;2022-10-28T13:54:22;3.72;;;2.28;;
62024;SDS011;47978;49.118;12.146;2022-10-28T13:56:50;3.88;;;2.13;;
62024;SDS011;47978;49.118;12.146;2022-10-28T13:59:23;3.53;;;2.53;;
62024;SDS011;47978;49.118;12.146;2022-10-28T14:01:54;5.95;;;2.72;;
62024;SDS011;47978;49.118;12.146;2022-10-28T14:04:42;7.15;;;2.50;;
62024;SDS011;47978;49.118;12.146;2022-10-28T14:07:20;7.03;;;2.60;;
62024;SDS011;47978;49.118;12.146;2022-10-28T14:09:50;7.68;;;3.05;;
62024;SDS011;47978;49.118;12.146;2022-10-28T14:12:23;5.05;;;2.92;;
62024;SDS011;47978;49.118;12.146;2022-10-28T14:14:56;8.07;;;2.80;;
62024;SDS011;47978;49.118;12.146;2022-10-28T14:17:29;5.70;;;3.30;;
62024;SDS011;47978;49.118;12.146;2022-10-28T14:20:02;6.80;;;2.78;;
62024;SDS011;47978;49.118;12.146;2022-10-28T14:22:32;5.90;;;2.53;;
62024;SDS011;47978;49.118;12.146;2022-10-28T14:25:01;7.35;;;2.35;;
62024;SDS011;47978;49.118;12.146;2022-10-28T14:27:41;6.70;;;2.67;;
62024;SDS011;47978;49.118;12.146;2022-10-28T14:30:20;6.07;;;2.35;;
62024;SDS011;47978;49.118;12.146;2022-10-28T14:32:57;5.32;;;2.35;;
62024;SDS011;47978;49.118;12.146;2022-10-28T14:35:37;6.70;;;2.53;;
62024;SDS011;47978;49.118;12.146;2022-10-28T14:38:22;9.52;;;2.67;;
62024;SDS011;47978;49.118;12.146;2022-10-28T14:41:24;4.63;;;2.30;;
62024;SDS011;47978;49.118;12.146;2022-10-28T14:44:08;8.23;;;2.88;;
62024;SDS011;47978;49.118;12.146;2022-10-28T14:46:57;5.60;;;2.45;;
62024;SDS011;47978;49.118;12.146;2022-10-28T14:49:32;5.55;;;2.50;;
62024;SDS011;47978;49.118;12.146;2022-10-28T14:52:03;5.28;;;2.60;;
62024;SDS011;47978;49.118;12.146;2022-10-28T14:54:34;4.40;;;2.20;;
62024;SDS011;47978;49.118;12.146;2022-10-28T14:57:06;5.00;;;2.53;;
62024;SDS011;47978;49.118;12.146;2022-10-28T14:59:35;9.32;;;2.38;;
62024;SDS011;47978;49.118;12.146;2022-10-28T15:02:09;7.95;;;2.50;;
62024;SDS011;47978;49.118;12.146;2022-10-28T15:04:38;5.80;;;2.88;;
62024;SDS011;47978;49.118;12.146;2022-10-28T15:07:08;5.30;;;2.80;;
62024;SDS011;47978;49.118;12.146;2022-10-28T15:09:38;6.27;;;2.90;;
62024;SDS011;47978;49.118;12.146;2022-10-28T15:12:06;6.30;;;2.88;;
62024;SDS011;47978;49.118;12.146;2022-10-28T15:14:35;6.75;;;2.38;;
62024;SDS011;47978;49.118;12.146;2022-10-28T15:17:14;4.55;;;2.53;;